Time;durP1;ratioP1;P1;durP2;ratioP2;P2;SDS_P1;SDS_P2;PMS_P1;PMS_P2;Temp;Humidity;BMP_temperature;BMP_pressure;BME280_temperature;BME280_humidity;BME280_pressure;Samples;Min_cycle;Max_cycle;Signal;HPM_P1;HPM_P2
2022/02/20 00:02:01;;;;;;;11.95;6.20;;;23.40;33.90;;;;;;6118243;28;81186;-62
2022/02/20 00:05:02;;;;;;;11.00;6.07;;;23.40;34.10;;;;;;6124787;28;80384;-62
2022/02/20 00:08:02;;;;;;;13.38;7.30;;;23.30;34.10;;;;;;6115220;28;81167;-61
2022/02/20 00:11:03;;;;;;;14.35;6.32;;;23.30;34.40;;;;;;6119640;28;80325;-62
2022/02/20 00:14:03;;;;;;;11.50;5.80;;;23.30;34.30;;;;;;6120114;28;80942;-62
2022/02/20 00:17:04;;;;;;;12.80;6.13;;;23.30;34.40;;;;;;6107634;28;80207;-62
2022/02/20 00:20:04;;;;;;;12.93;5.65;;;23.30;34.40;;;;;;6128921;28;80389;-62
2022/02/20 00:23:05;;;;;;;11.10;5.15;;;23.30;34.50;;;;;;6120134;28;80369;-62
2022/02/20 00:26:05;;;;;;;15.00;6.25;;;23.30;34.40;;;;;;6104874;28;81387;-62
2022/02/20 00:29:06;;;;;;;12.60;5.68;;;23.30;34.70;;;;;;6102634;28;80615;-62
2022/02/20 00:32:07;;;;;;;11.80;6.20;;;23.20;34.40;;;;;;6124504;28;83275;-62
2022/02/20 00:35:07;;;;;;;12.32;6.05;;;23.20;34.40;;;;;;6102770;28;82980;-62
2022/02/20 00:38:08;;;;;;;12.90;5.40;;;23.20;34.40;;;;;;6118860;28;80449;-62
2022/02/20 00:41:08;;;;;;;11.45;5.70;;;23.20;34.40;;;;;;6093264;28;81864;-62
2022/02/20 00:44:09;;;;;;;12.25;5.68;;;23.20;34.30;;;;;;6108586;28;81482;-63
2022/02/20 00:47:09;;;;;;;13.00;5.75;;;23.20;34.40;;;;;;6127188;28;81224;-63
2022/02/20 00:50:10;;;;;;;10.20;5.43;;;23.20;34.30;;;;;;6118851;28;80978;-62
2022/02/20 00:53:11;;;;;;;9.32;4.97;;;23.20;34.40;;;;;;6126881;28;80403;-62
2022/02/20 00:56:11;;;;;;;9.75;5.10;;;23.20;34.20;;;;;;6107348;28;81836;-63
2022/02/20 00:59:13;;;;;;;11.07;5.03;;;23.20;34.20;;;;;;6130130;28;82695;-62
2022/02/20 01:02:13;;;;;;;9.90;4.82;;;23.20;34.10;;;;;;6099992;28;83422;-63
2022/02/20 01:05:14;;;;;;;9.10;4.63;;;23.20;34.30;;;;;;6114181;28;80477;-62
2022/02/20 01:08:14;;;;;;;8.55;4.53;;;23.20;34.10;;;;;;6118910;28;80882;-63
2022/02/20 01:11:15;;;;;;;9.35;4.38;;;23.20;34.10;;;;;;6097074;28;81052;-63
2022/02/20 01:14:16;;;;;;;9.75;5.13;;;23.10;34.00;;;;;;6095343;28;84034;-63
2022/02/20 01:17:17;;;;;;;8.88;3.72;;;23.10;34.10;;;;;;6109833;28;81422;-63
2022/02/20 01:20:18;;;;;;;6.90;3.47;;;23.10;34.10;;;;;;6127639;28;80279;-62
2022/02/20 01:23:18;;;;;;;8.52;4.30;;;23.10;34.10;;;;;;6111213;28;81558;-63
2022/02/20 01:26:19;;;;;;;6.85;3.50;;;23.10;34.00;;;;;;6108845;28;80357;-62
2022/02/20 01:29:19;;;;;;;7.97;3.85;;;23.10;33.80;;;;;;6110639;28;81553;-62
2022/02/20 01:32:21;;;;;;;7.85;4.03;;;23.10;34.00;;;;;;6101333;28;80464;-62
2022/02/20 01:35:21;;;;;;;7.50;3.83;;;23.10;34.00;;;;;;6120329;28;82327;-63
2022/02/20 01:38:23;;;;;;;6.93;3.50;;;23.10;34.00;;;;;;6126176;28;82863;-62
2022/02/20 01:41:24;;;;;;;7.68;3.75;;;23.10;34.00;;;;;;6117077;28;83332;-62
2022/02/20 01:44:26;;;;;;;7.00;3.78;;;23.10;34.00;;;;;;6094337;28;82573;-62
2022/02/20 01:47:28;;;;;;;7.70;4.05;;;23.10;33.90;;;;;;6100173;28;82227;-62
2022/02/20 01:50:29;;;;;;;9.73;3.47;;;23.10;33.90;;;;;;6115491;28;80408;-62
2022/02/20 01:53:30;;;;;;;7.05;3.88;;;23.10;33.90;;;;;;6110923;28;80193;-62
2022/02/20 01:56:31;;;;;;;8.15;3.53;;;23.10;33.80;;;;;;6124319;28;82951;-62
2022/02/20 01:59:47;;;;;;;5.22;3.10;;;23.00;33.90;;;;;;6125598;28;83287;-63
2022/02/20 02:02:57;;;;;;;7.93;3.83;;;23.00;33.80;;;;;;6102602;28;80213;-62
2022/02/20 02:06:16;;;;;;;5.57;3.15;;;23.00;33.80;;;;;;6126378;28;80247;-62
2022/02/20 02:09:18;;;;;;;7.20;3.50;;;23.00;33.70;;;;;;6111780;28;83148;-62
2022/02/20 02:12:29;;;;;;;5.32;2.90;;;23.00;33.70;;;;;;6110088;28;83294;-63
2022/02/20 02:15:39;;;;;;;6.78;3.35;;;23.00;33.80;;;;;;6109275;28;80396;-63
2022/02/20 02:18:52;;;;;;;5.90;3.42;;;23.00;33.80;;;;;;6110212;28;81416;-62
2022/02/20 02:22:18;;;;;;;8.80;3.70;;;23.00;33.80;;;;;;6104572;28;86347;-62
2022/02/20 02:25:37;;;;;;;7.10;3.35;;;23.00;33.70;;;;;;6106512;28;81858;-63
2022/02/20 02:28:58;;;;;;;6.53;2.97;;;23.00;33.70;;;;;;6122066;28;80684;-63
2022/02/20 02:31:59;;;;;;;6.00;3.00;;;23.00;33.70;;;;;;6107587;28;80501;-63
2022/02/20 02:35:00;;;;;;;6.70;2.90;;;22.90;33.70;;;;;;6105579;28;83267;-63
2022/02/20 02:38:04;;;;;;;6.50;2.80;;;22.90;33.60;;;;;;6111243;28;83276;-62
2022/02/20 02:41:05;;;;;;;5.82;3.25;;;22.90;33.70;;;;;;6108976;28;81363;-63
2022/02/20 02:44:06;;;;;;;6.75;3.00;;;22.90;33.00;;;;;;6126194;28;83362;-62
2022/02/20 02:47:07;;;;;;;5.57;2.97;;;22.90;33.40;;;;;;6127505;28;80461;-63
2022/02/20 02:50:08;;;;;;;9.75;3.53;;;22.90;33.30;;;;;;6107423;28;82890;-62
2022/02/20 02:53:09;;;;;;;6.65;3.55;;;22.90;33.50;;;;;;6122696;28;83584;-62
2022/02/20 02:56:09;;;;;;;5.18;3.05;;;22.90;33.40;;;;;;6121460;28;80539;-62
2022/02/20 02:59:10;;;;;;;6.93;2.80;;;22.90;33.10;;;;;;6124276;28;83496;-62
2022/02/20 03:02:11;;;;;;;6.97;3.28;;;22.90;33.20;;;;;;6126140;28;83229;-62
2022/02/20 03:05:11;;;;;;;7.28;3.38;;;22.90;33.60;;;;;;6122827;28;83126;-63
2022/02/20 03:08:15;;;;;;;7.68;2.83;;;22.90;33.60;;;;;;6102974;28;83362;-62
2022/02/20 03:11:15;;;;;;;6.57;3.13;;;22.80;33.40;;;;;;6087046;28;82822;-62
2022/02/20 03:14:16;;;;;;;6.15;2.53;;;22.90;33.40;;;;;;6117455;28;83012;-61
2022/02/20 03:17:17;;;;;;;5.10;2.70;;;22.80;33.30;;;;;;6111751;28;82999;-62
2022/02/20 03:20:17;;;;;;;5.25;2.78;;;22.80;33.40;;;;;;6118070;28;81910;-62
2022/02/20 03:23:19;;;;;;;6.15;3.00;;;22.80;33.20;;;;;;6116179;28;83228;-62
2022/02/20 03:26:20;;;;;;;6.40;3.10;;;22.80;33.30;;;;;;6101110;28;83225;-62
2022/02/20 03:29:22;;;;;;;6.65;2.85;;;22.80;33.30;;;;;;6093036;28;83907;-62
2022/02/20 03:32:23;;;;;;;5.15;2.97;;;22.80;33.10;;;;;;6109409;28;82426;-64
2022/02/20 03:35:24;;;;;;;5.65;2.50;;;22.80;33.30;;;;;;6125166;28;83073;-62
2022/02/20 03:38:24;;;;;;;4.70;2.42;;;22.80;33.40;;;;;;6124918;28;82832;-62
2022/02/20 03:41:25;;;;;;;4.35;2.58;;;22.70;33.00;;;;;;6104194;28;80302;-65
2022/02/20 03:44:26;;;;;;;4.18;2.40;;;22.80;33.20;;;;;;6114747;28;82753;-62
2022/02/20 03:47:42;;;;;;;5.70;2.65;;;22.80;33.20;;;;;;6117810;28;81561;-62
2022/02/20 03:50:44;;;;;;;4.10;2.08;;;22.80;33.30;;;;;;6107707;28;83559;-62
2022/02/20 03:53:47;;;;;;;6.05;2.78;;;22.80;33.10;;;;;;6113518;28;81544;-62
2022/02/20 03:56:48;;;;;;;5.18;2.30;;;22.80;33.20;;;;;;6113163;28;81601;-62
2022/02/20 04:00:10;;;;;;;7.22;2.92;;;22.80;33.00;;;;;;6125753;28;80352;-62
2022/02/20 04:03:15;;;;;;;4.50;2.28;;;22.70;33.00;;;;;;6114652;28;80269;-61
2022/02/20 04:06:21;;;;;;;8.47;2.93;;;22.70;32.80;;;;;;6120367;28;83110;-62
2022/02/20 04:09:32;;;;;;;5.90;2.97;;;22.70;32.70;;;;;;6110569;28;80510;-62
2022/02/20 04:12:36;;;;;;;4.60;2.25;;;22.70;33.00;;;;;;6103881;28;82701;-62
2022/02/20 04:15:37;;;;;;;8.07;2.95;;;22.70;33.20;;;;;;6100101;28;83183;-62
2022/02/20 04:18:45;;;;;;;5.03;2.05;;;22.80;33.20;;;;;;6103502;28;82950;-62
2022/02/20 04:21:50;;;;;;;2.53;2.10;;;22.80;33.00;;;;;;6114807;28;83199;-62
2022/02/20 04:24:57;;;;;;;5.45;2.47;;;22.80;32.50;;;;;;6132142;28;87075;-63
2022/02/20 04:27:57;;;;;;;6.30;2.58;;;22.90;31.60;;;;;;6111302;28;84082;-63
2022/02/20 04:31:01;;;;;;;4.38;2.45;;;23.00;31.50;;;;;;6121085;28;83007;-62
2022/02/20 04:34:03;;;;;;;5.47;2.58;;;23.00;31.10;;;;;;6115613;28;81808;-62
2022/02/20 04:37:03;;;;;;;5.00;2.15;;;23.00;30.60;;;;;;6104688;28;83280;-62
2022/02/20 04:40:06;;;;;;;3.45;2.33;;;23.10;30.80;;;;;;6116157;28;81760;-62
2022/02/20 04:43:13;;;;;;;2.60;2.00;;;23.10;30.50;;;;;;6121380;28;81890;-62
2022/02/20 04:46:14;;;;;;;4.40;2.60;;;23.10;30.50;;;;;;6126365;28;81549;-61
2022/02/20 04:49:15;;;;;;;5.43;2.85;;;23.20;30.40;;;;;;6118842;28;82214;-61
2022/02/20 04:52:44;;;;;;;5.13;2.33;;;23.20;30.20;;;;;;6121729;28;80949;-63
2022/02/20 04:56:01;;;;;;;4.55;2.20;;;23.20;30.00;;;;;;6108894;28;83076;-63
2022/02/20 04:59:12;;;;;;;7.15;2.60;;;23.20;29.90;;;;;;6109374;28;83525;-62
2022/02/20 05:02:18;;;;;;;6.80;2.28;;;23.20;29.90;;;;;;6106370;28;82102;-60
2022/02/20 05:05:24;;;;;;;3.67;2.25;;;23.30;29.90;;;;;;6119570;28;83002;-62
2022/02/20 05:08:24;;;;;;;3.83;2.20;;;23.20;29.60;;;;;;6109471;28;82789;-62
2022/02/20 05:11:27;;;;;;;3.28;1.83;;;23.30;29.70;;;;;;6122840;28;80505;-60
2022/02/20 05:14:32;;;;;;;4.03;2.05;;;23.30;29.60;;;;;;6105578;28;83235;-61
2022/02/20 05:17:43;;;;;;;4.38;2.38;;;23.30;29.60;;;;;;6104551;28;82242;-60
2022/02/20 05:20:54;;;;;;;7.43;2.60;;;23.40;29.70;;;;;;6101498;28;83437;-61
2022/02/20 05:23:56;;;;;;;9.95;1.77;;;23.40;30.00;;;;;;6114265;28;83111;-62
2022/02/20 05:26:57;;;;;;;7.38;2.30;;;23.40;29.90;;;;;;6107213;28;82778;-61
2022/02/20 05:30:04;;;;;;;7.15;2.17;;;23.40;29.70;;;;;;6105661;28;82470;-61
2022/02/20 05:33:08;;;;;;;4.55;2.22;;;23.40;29.60;;;;;;6104529;28;83087;-62
2022/02/20 05:36:10;;;;;;;5.30;2.63;;;23.40;29.40;;;;;;6109647;28;83134;-62
2022/02/20 05:39:20;;;;;;;9.88;2.97;;;23.50;29.30;;;;;;6106414;28;83599;-61
2022/02/20 05:42:21;;;;;;;5.20;2.00;;;23.50;29.30;;;;;;6123021;28;81506;-60
2022/02/20 05:45:31;;;;;;;5.20;2.50;;;23.50;29.00;;;;;;6108579;28;83711;-61
2022/02/20 05:48:38;;;;;;;8.68;2.38;;;23.50;29.10;;;;;;6117268;28;81809;-64
2022/02/20 05:52:02;;;;;;;5.32;2.20;;;23.50;29.80;;;;;;6088491;28;85812;-60
2022/02/20 05:55:16;;;;;;;3.58;2.22;;;23.60;30.00;;;;;;6107480;28;81737;-62
2022/02/20 05:58:18;;;;;;;4.40;2.28;;;23.60;30.30;;;;;;6097512;28;83277;-61
2022/02/20 06:01:32;;;;;;;6.28;2.55;;;23.60;30.60;;;;;;6103131;28;83087;-63
2022/02/20 06:04:39;;;;;;;6.18;2.10;;;23.60;30.30;;;;;;6124243;28;83356;-61
2022/02/20 06:07:51;;;;;;;19.95;2.80;;;23.50;30.10;;;;;;6116626;28;80652;-62
2022/02/20 06:11:16;;;;;;;8.02;2.17;;;23.50;30.40;;;;;;6101984;28;80408;-61
2022/02/20 06:14:43;;;;;;;6.38;2.55;;;23.10;32.90;;;;;;6098168;28;80722;-61
2022/02/20 06:18:03;;;;;;;3.72;2.17;;;22.90;34.10;;;;;;6107539;28;83315;-61
2022/02/20 06:21:23;;;;;;;3.83;1.80;;;22.70;34.80;;;;;;6099308;28;83717;-61
2022/02/20 06:24:43;;;;;;;10.90;3.30;;;22.70;35.90;;;;;;6098706;28;81243;-61
2022/02/20 06:27:47;;;;;;;9.88;4.18;;;22.70;37.70;;;;;;6117090;28;80933;-62
2022/02/20 06:30:50;;;;;;;9.02;3.58;;;22.80;38.40;;;;;;6101838;28;83456;-62
2022/02/20 06:34:07;;;;;;;17.42;3.30;;;22.80;39.10;;;;;;6110784;28;86851;-62
2022/02/20 06:37:07;;;;;;;8.65;2.83;;;22.70;38.60;;;;;;6123462;28;87875;-61
2022/02/20 06:40:10;;;;;;;8.80;2.85;;;22.70;38.70;;;;;;6118512;28;83037;-63
2022/02/20 06:43:11;;;;;;;5.45;2.58;;;22.60;39.50;;;;;;6118651;28;82904;-62
2022/02/20 06:46:14;;;;;;;7.20;3.05;;;22.60;39.60;;;;;;6123354;28;83477;-62
2022/02/20 06:49:41;;;;;;;7.40;2.80;;;22.50;39.40;;;;;;6107255;28;81448;-60
2022/02/20 06:53:00;;;;;;;9.52;2.72;;;22.50;39.30;;;;;;6108360;28;80595;-60
2022/02/20 06:56:19;;;;;;;3.75;2.35;;;22.50;39.40;;;;;;6121248;28;81626;-60
2022/02/20 06:59:19;;;;;;;4.28;2.25;;;22.50;39.40;;;;;;6119399;28;80947;-59
2022/02/20 07:02:20;;;;;;;5.43;2.80;;;22.50;39.10;;;;;;6127896;28;80448;-59
2022/02/20 07:05:23;;;;;;;8.90;2.50;;;22.50;39.20;;;;;;6092838;28;80432;-60
2022/02/20 07:08:24;;;;;;;8.10;2.97;;;22.40;38.90;;;;;;6112677;28;81449;-60
2022/02/20 07:11:24;;;;;;;6.47;2.17;;;22.50;39.20;;;;;;6126467;28;82802;-62
2022/02/20 07:14:25;;;;;;;6.07;2.80;;;22.50;38.90;;;;;;6117598;28;81336;-61
2022/02/20 07:17:26;;;;;;;7.55;2.92;;;22.60;39.40;;;;;;6125377;28;80588;-60
2022/02/20 07:20:26;;;;;;;7.97;2.92;;;22.70;39.20;;;;;;6109144;28;82110;-60
2022/02/20 07:23:27;;;;;;;7.50;3.13;;;22.70;39.20;;;;;;6105111;28;82376;-58
2022/02/20 07:26:29;;;;;;;5.40;2.92;;;22.80;39.60;;;;;;6109288;28;81213;-64
2022/02/20 07:29:29;;;;;;;7.22;3.08;;;22.80;39.40;;;;;;6090111;28;82115;-60
2022/02/20 07:32:30;;;;;;;7.30;2.92;;;22.80;39.80;;;;;;6104918;28;81179;-60
2022/02/20 07:35:30;;;;;;;4.45;2.40;;;22.90;40.10;;;;;;6102545;28;82093;-60
2022/02/20 07:38:31;;;;;;;5.35;2.88;;;22.90;40.40;;;;;;6097774;28;81113;-60
2022/02/20 07:41:32;;;;;;;5.30;2.60;;;23.00;40.50;;;;;;6102166;28;80328;-60
2022/02/20 07:44:34;;;;;;;5.57;2.60;;;22.90;40.10;;;;;;6108025;28;80603;-60
2022/02/20 07:47:35;;;;;;;6.93;2.25;;;22.90;41.00;;;;;;6105817;28;80393;-60
2022/02/20 07:50:35;;;;;;;5.70;2.42;;;23.00;40.40;;;;;;6108775;28;81376;-61
2022/02/20 07:53:37;;;;;;;6.25;2.17;;;23.00;40.60;;;;;;6105940;28;84165;-60
2022/02/20 07:56:38;;;;;;;5.47;2.20;;;23.00;40.80;;;;;;6111315;28;82182;-65
2022/02/20 07:59:39;;;;;;;4.95;2.45;;;22.90;40.80;;;;;;6108521;28;80822;-60
2022/02/20 08:02:40;;;;;;;16.25;2.15;;;22.90;40.50;;;;;;6116166;28;80143;-61
2022/02/20 08:05:40;;;;;;;4.60;2.00;;;22.90;40.30;;;;;;6106429;28;81549;-62
2022/02/20 08:08:41;;;;;;;4.45;2.42;;;22.90;40.30;;;;;;6104913;28;80526;-62
2022/02/20 08:11:42;;;;;;;3.45;2.17;;;22.90;40.00;;;;;;6108904;28;80637;-61
2022/02/20 08:14:42;;;;;;;6.18;2.13;;;22.90;39.60;;;;;;6106004;28;80726;-61
2022/02/20 08:17:43;;;;;;;4.88;2.05;;;22.90;39.70;;;;;;6111119;28;81439;-61
2022/02/20 08:20:46;;;;;;;13.20;2.45;;;22.90;39.70;;;;;;6098714;28;80304;-63
2022/02/20 08:23:48;;;;;;;5.82;2.63;;;22.80;41.20;;;;;;6112689;28;80511;-60
2022/02/20 08:26:50;;;;;;;3.55;2.13;;;22.90;41.00;;;;;;6099445;28;80452;-61
2022/02/20 08:29:54;;;;;;;6.40;2.15;;;22.80;41.30;;;;;;6118406;28;81518;-61
2022/02/20 08:32:55;;;;;;;4.15;1.77;;;22.80;41.40;;;;;;6127396;28;81934;-62
2022/02/20 08:35:55;;;;;;;5.28;2.05;;;22.80;41.60;;;;;;6112733;28;80264;-60
2022/02/20 08:38:56;;;;;;;4.18;2.10;;;22.80;41.40;;;;;;6116036;28;80873;-61
2022/02/20 08:41:57;;;;;;;7.57;2.70;;;22.70;41.60;;;;;;6116114;28;80808;-62
2022/02/20 08:44:57;;;;;;;4.05;1.88;;;22.80;41.30;;;;;;6119423;28;80537;-61
2022/02/20 08:47:58;;;;;;;5.35;2.38;;;22.90;40.90;;;;;;6109074;28;80555;-60
2022/02/20 08:50:58;;;;;;;3.72;1.85;;;22.90;40.70;;;;;;6112251;28;80724;-61
2022/02/20 08:53:59;;;;;;;6.70;2.28;;;22.90;40.80;;;;;;6103041;28;81621;-61
2022/02/20 08:57:00;;;;;;;2.20;1.48;;;22.90;40.80;;;;;;6111453;28;80367;-60
2022/02/20 09:00:01;;;;;;;4.78;1.70;;;23.00;40.50;;;;;;6108911;28;80927;-62
2022/02/20 09:03:02;;;;;;;3.20;1.58;;;22.90;38.30;;;;;;6104584;28;80895;-60
2022/02/20 09:06:02;;;;;;;1.92;1.55;;;22.90;40.10;;;;;;6103486;28;80833;-61
2022/02/20 09:09:03;;;;;;;2.72;1.92;;;22.80;40.80;;;;;;6116887;28;80913;-63
2022/02/20 09:12:04;;;;;;;3.45;1.90;;;22.80;41.20;;;;;;6106985;28;82895;-62
2022/02/20 09:15:05;;;;;;;2.55;1.58;;;22.90;41.50;;;;;;6113422;28;81781;-65
2022/02/20 09:18:05;;;;;;;2.60;1.50;;;22.90;42.50;;;;;;6109917;28;80697;-61
2022/02/20 09:21:06;;;;;;;1.77;1.63;;;22.90;41.90;;;;;;6106075;28;80677;-63
2022/02/20 09:24:06;;;;;;;4.70;1.30;;;22.80;42.00;;;;;;6103410;28;80414;-60
2022/02/20 09:27:07;;;;;;;3.28;1.80;;;22.80;42.10;;;;;;6100116;28;80799;-62
2022/02/20 09:30:07;;;;;;;2.78;2.17;;;22.80;42.50;;;;;;6097532;28;80762;-62
2022/02/20 09:33:08;;;;;;;2.97;1.95;;;22.70;42.90;;;;;;6096104;28;81281;-61
2022/02/20 09:36:09;;;;;;;4.38;1.42;;;22.70;43.10;;;;;;6101020;28;80462;-61
2022/02/20 09:39:09;;;;;;;2.30;1.73;;;22.70;43.40;;;;;;6092335;28;81505;-61
2022/02/20 09:42:10;;;;;;;2.80;1.83;;;22.70;43.50;;;;;;6106009;28;80261;-63
2022/02/20 09:45:10;;;;;;;1.63;1.30;;;22.70;43.70;;;;;;6104201;28;81813;-59
2022/02/20 09:48:11;;;;;;;4.30;1.67;;;22.70;44.30;;;;;;6104448;28;80409;-62
2022/02/20 09:51:12;;;;;;;4.00;1.40;;;22.80;44.60;;;;;;6100217;28;81720;-62
2022/02/20 09:54:12;;;;;;;1.63;1.30;;;22.80;45.00;;;;;;6100895;28;80998;-62
2022/02/20 09:57:13;;;;;;;2.28;1.40;;;22.80;45.40;;;;;;6102610;28;80334;-63
2022/02/20 10:00:13;;;;;;;6.97;1.90;;;22.80;45.10;;;;;;6106193;28;80940;-61
2022/02/20 10:03:14;;;;;;;1.52;1.38;;;22.80;45.30;;;;;;6103668;28;80429;-62
2022/02/20 10:06:14;;;;;;;3.22;2.03;;;22.80;45.60;;;;;;6106490;28;80803;-60
2022/02/20 10:09:15;;;;;;;2.63;2.00;;;22.80;45.40;;;;;;6103694;28;80317;-60
2022/02/20 10:12:16;;;;;;;2.50;1.63;;;22.80;45.40;;;;;;6108919;28;80503;-59
2022/02/20 10:15:16;;;;;;;5.80;1.52;;;22.80;45.40;;;;;;6106955;28;81451;-59
2022/02/20 10:18:17;;;;;;;2.53;1.70;;;22.90;45.40;;;;;;6105988;28;80240;-60
2022/02/20 10:21:36;;;;;;;1.63;1.48;;;22.90;45.10;;;;;;6101662;28;81420;-62
2022/02/20 10:25:05;;;;;;;4.90;2.17;;;23.00;45.30;;;;;;6089876;28;85821;-65
2022/02/20 10:28:28;;;;;;;2.72;1.65;;;23.00;45.00;;;;;;6118851;28;81496;-60
2022/02/20 10:31:35;;;;;;;2.72;1.67;;;22.90;44.60;;;;;;6116435;28;82397;-60
2022/02/20 10:34:36;;;;;;;3.50;1.67;;;22.90;44.70;;;;;;6128499;28;80944;-59
2022/02/20 10:37:36;;;;;;;3.67;2.40;;;22.90;44.50;;;;;;6112175;28;81451;-63
2022/02/20 10:40:37;;;;;;;6.65;2.85;;;22.90;44.80;;;;;;6120974;28;80681;-60
2022/02/20 10:43:37;;;;;;;2.00;1.80;;;22.90;45.00;;;;;;6102017;28;81761;-64
2022/02/20 10:46:38;;;;;;;2.00;1.70;;;22.90;45.00;;;;;;6113069;28;80678;-62
2022/02/20 10:49:39;;;;;;;5.53;2.15;;;22.90;45.10;;;;;;6101590;28;81027;-62
2022/02/20 10:52:39;;;;;;;3.08;1.90;;;22.90;45.10;;;;;;6096706;28;80313;-63
2022/02/20 10:55:40;;;;;;;2.50;2.08;;;22.90;45.10;;;;;;6120150;28;80738;-65
2022/02/20 10:58:41;;;;;;;4.35;1.90;;;22.90;45.00;;;;;;6102785;28;80738;-62
2022/02/20 11:01:41;;;;;;;3.13;1.92;;;22.90;45.20;;;;;;6098778;28;80554;-62
2022/02/20 11:04:42;;;;;;;4.00;2.20;;;22.90;44.90;;;;;;6104552;28;81020;-61
2022/02/20 11:07:42;;;;;;;3.60;2.35;;;22.90;45.10;;;;;;6101753;28;80682;-62
2022/02/20 11:10:43;;;;;;;7.82;2.47;;;22.90;45.20;;;;;;6103940;28;80493;-64
2022/02/20 11:13:43;;;;;;;2.30;1.92;;;22.90;45.30;;;;;;6090437;28;81828;-62
2022/02/20 11:16:44;;;;;;;3.25;2.13;;;22.90;45.20;;;;;;6104287;28;80611;-63
2022/02/20 11:19:45;;;;;;;3.13;2.25;;;22.80;45.40;;;;;;6100051;28;81404;-63
2022/02/20 11:22:45;;;;;;;4.55;2.50;;;22.80;45.50;;;;;;6101802;28;80333;-63
2022/02/20 11:25:46;;;;;;;3.58;2.17;;;22.90;45.40;;;;;;6101194;28;80950;-63
2022/02/20 11:28:48;;;;;;;2.47;2.00;;;22.90;45.80;;;;;;6106493;28;80375;-63
2022/02/20 11:31:49;;;;;;;3.42;2.08;;;22.90;45.90;;;;;;6101488;28;80571;-63
2022/02/20 11:34:49;;;;;;;5.00;2.25;;;22.90;46.10;;;;;;6106525;28;80353;-61
2022/02/20 11:37:50;;;;;;;3.80;2.35;;;22.90;46.30;;;;;;6106706;28;80318;-61
2022/02/20 11:40:50;;;;;;;3.00;2.08;;;22.90;46.30;;;;;;6115146;28;80814;-61
2022/02/20 11:43:51;;;;;;;2.10;1.88;;;22.90;46.10;;;;;;6111518;28;82203;-64
2022/02/20 11:46:52;;;;;;;2.92;2.20;;;22.90;46.20;;;;;;6106802;28;81281;-64
2022/02/20 11:49:52;;;;;;;3.47;2.30;;;22.90;46.00;;;;;;6101265;28;80508;-63
2022/02/20 11:52:53;;;;;;;4.68;2.58;;;23.00;46.00;;;;;;6099915;28;81051;-64
2022/02/20 11:55:53;;;;;;;7.82;2.38;;;22.90;46.00;;;;;;6112923;28;80776;-61
2022/02/20 11:58:54;;;;;;;3.83;2.20;;;23.00;46.40;;;;;;6100706;28;80824;-62
2022/02/20 12:01:54;;;;;;;7.82;3.67;;;23.00;46.30;;;;;;6106658;28;80458;-61
2022/02/20 12:04:55;;;;;;;11.10;4.60;;;23.00;46.90;;;;;;6114675;28;81446;-62
2022/02/20 12:07:55;;;;;;;17.05;6.38;;;23.00;46.70;;;;;;6110388;28;80959;-61
2022/02/20 12:10:56;;;;;;;13.15;6.35;;;23.10;47.10;;;;;;6104306;28;81118;-61
2022/02/20 12:13:57;;;;;;;10.63;6.63;;;23.10;47.50;;;;;;6115720;28;80265;-58
2022/02/20 12:16:58;;;;;;;17.33;8.38;;;23.10;47.60;;;;;;6120300;28;81007;-60
2022/02/20 12:19:59;;;;;;;15.02;7.82;;;23.20;48.60;;;;;;6116134;28;80838;-61
2022/02/20 12:23:00;;;;;;;15.77;7.70;;;23.30;48.70;;;;;;6110135;28;80799;-60
2022/02/20 12:26:00;;;;;;;27.48;16.17;;;23.40;49.10;;;;;;6106861;28;81758;-60
2022/02/20 12:29:01;;;;;;;35.47;19.85;;;23.40;49.50;;;;;;6102487;28;83304;-61
2022/02/20 12:32:02;;;;;;;37.35;21.63;;;23.50;49.40;;;;;;6107202;28;83255;-60
2022/02/20 12:35:02;;;;;;;36.00;19.52;;;23.60;49.60;;;;;;6117116;28;83247;-60
2022/02/20 12:38:05;;;;;;;36.25;18.98;;;23.60;49.70;;;;;;6109166;28;84165;-60
2022/02/20 12:41:05;;;;;;;31.40;18.38;;;23.60;49.40;;;;;;6126139;28;83998;-61
2022/02/20 12:44:06;;;;;;;31.25;18.08;;;23.60;49.40;;;;;;6127474;28;83096;-60
2022/02/20 12:47:07;;;;;;;27.77;16.35;;;23.60;49.50;;;;;;6122040;28;84253;-59
2022/02/20 12:50:07;;;;;;;28.58;16.23;;;23.60;49.50;;;;;;6106697;28;83170;-61
2022/02/20 12:53:09;;;;;;;30.10;16.60;;;23.60;49.40;;;;;;6102342;28;84856;-59
2022/02/20 12:56:09;;;;;;;27.63;14.63;;;23.70;48.90;;;;;;6110379;28;83259;-62
2022/02/20 12:59:10;;;;;;;28.17;14.80;;;23.90;47.40;;;;;;6104573;28;84897;-62
2022/02/20 13:02:10;;;;;;;25.83;13.52;;;24.00;46.50;;;;;;6105894;28;83477;-60
2022/02/20 13:05:11;;;;;;;24.98;12.25;;;24.00;45.50;;;;;;6104556;28;86285;-65
2022/02/20 13:08:12;;;;;;;25.85;12.75;;;24.00;44.90;;;;;;6105719;28;83444;-60
2022/02/20 13:11:13;;;;;;;20.08;10.98;;;24.10;44.20;;;;;;6106136;28;84076;-60
2022/02/20 13:14:14;;;;;;;18.20;11.13;;;24.20;43.70;;;;;;6120908;28;83132;-60
2022/02/20 13:17:15;;;;;;;21.58;11.25;;;24.20;43.10;;;;;;6116982;28;82767;-61
2022/02/20 13:20:16;;;;;;;19.92;11.48;;;24.20;43.10;;;;;;6122099;28;83220;-61
2022/02/20 13:23:16;;;;;;;17.95;9.93;;;24.20;42.20;;;;;;6113951;28;83333;-61
2022/02/20 13:26:17;;;;;;;15.35;9.20;;;24.20;42.20;;;;;;6091939;28;82265;-60
2022/02/20 13:29:18;;;;;;;19.85;9.80;;;24.00;43.50;;;;;;6096753;28;80415;-60
2022/02/20 13:32:19;;;;;;;17.00;10.00;;;23.80;44.40;;;;;;6094235;28;83545;-62
2022/02/20 13:35:20;;;;;;;12.32;8.07;;;23.70;44.80;;;;;;6103494;28;83207;-60
2022/02/20 13:38:20;;;;;;;14.57;8.55;;;23.70;45.30;;;;;;6097177;28;82778;-60
2022/02/20 13:41:21;;;;;;;15.25;7.95;;;23.70;45.50;;;;;;6093799;28;81360;-61
2022/02/20 13:44:21;;;;;;;14.05;7.32;;;23.70;45.50;;;;;;6092053;28;80862;-60
2022/02/20 13:47:22;;;;;;;12.65;7.47;;;23.70;45.80;;;;;;6105619;28;81904;-61
2022/02/20 13:50:23;;;;;;;11.65;7.35;;;23.70;45.50;;;;;;6096867;28;88820;-60
2022/02/20 13:53:23;;;;;;;17.20;8.18;;;23.80;45.80;;;;;;6097916;28;80164;-60
2022/02/20 13:56:24;;;;;;;13.50;7.50;;;23.80;46.00;;;;;;6096152;28;80511;-60
2022/02/20 13:59:25;;;;;;;10.73;6.82;;;23.90;45.80;;;;;;6091336;28;80191;-60
2022/02/20 14:02:26;;;;;;;12.27;6.65;;;23.90;45.60;;;;;;6096608;28;80742;-61
2022/02/20 14:05:28;;;;;;;10.10;6.43;;;24.00;45.50;;;;;;6095911;28;80638;-61
2022/02/20 14:08:29;;;;;;;12.25;6.70;;;24.10;45.40;;;;;;6101338;28;81127;-63
2022/02/20 14:11:29;;;;;;;13.95;6.72;;;24.10;45.40;;;;;;6103243;28;80857;-61
2022/02/20 14:14:30;;;;;;;9.98;5.63;;;24.20;45.50;;;;;;6097627;28;81278;-61
2022/02/20 14:17:30;;;;;;;8.52;5.15;;;24.20;45.60;;;;;;6101052;28;80631;-63
2022/02/20 14:20:31;;;;;;;9.50;5.18;;;24.30;45.60;;;;;;6129172;28;81465;-62
2022/02/20 14:23:34;;;;;;;8.68;5.28;;;24.30;45.40;;;;;;6106493;28;80779;-61
2022/02/20 14:26:34;;;;;;;8.20;5.50;;;24.30;45.40;;;;;;6112665;28;80461;-63
2022/02/20 14:29:36;;;;;;;8.77;4.60;;;24.30;45.50;;;;;;6117240;28;81304;-62
2022/02/20 14:32:37;;;;;;;7.60;4.65;;;24.30;45.20;;;;;;6117565;28;80649;-61
2022/02/20 14:35:40;;;;;;;7.32;4.53;;;24.30;45.50;;;;;;6120468;28;81524;-61
2022/02/20 14:38:41;;;;;;;10.55;4.53;;;24.30;45.50;;;;;;6119237;28;80754;-61
2022/02/20 14:41:41;;;;;;;10.93;4.70;;;24.30;46.20;;;;;;6097271;28;81118;-61
2022/02/20 14:44:45;;;;;;;7.20;4.53;;;24.30;46.50;;;;;;6110468;28;80926;-61
2022/02/20 14:47:45;;;;;;;7.97;4.28;;;24.30;46.70;;;;;;6126005;28;82747;-61
2022/02/20 14:50:46;;;;;;;11.80;4.85;;;24.30;46.50;;;;;;6093933;28;80344;-61
2022/02/20 14:53:46;;;;;;;7.47;4.45;;;24.10;46.20;;;;;;6105765;28;81405;-61
2022/02/20 14:56:47;;;;;;;7.82;3.95;;;24.10;46.90;;;;;;6104377;28;80359;-60
2022/02/20 14:59:47;;;;;;;4.88;3.65;;;24.10;46.80;;;;;;6106683;28;82191;-61
2022/02/20 15:02:48;;;;;;;6.72;3.88;;;24.10;46.60;;;;;;6102447;28;80398;-61
2022/02/20 15:05:48;;;;;;;10.50;4.30;;;24.10;46.60;;;;;;6100346;28;81636;-62
2022/02/20 15:08:49;;;;;;;8.73;4.15;;;24.10;46.90;;;;;;6106561;28;80349;-61
2022/02/20 15:11:50;;;;;;;6.88;3.40;;;24.00;46.80;;;;;;6104807;28;81454;-61
2022/02/20 15:14:50;;;;;;;6.10;3.67;;;24.10;46.80;;;;;;6105173;28;82044;-61
2022/02/20 15:17:51;;;;;;;4.82;3.20;;;24.10;46.60;;;;;;6101330;28;82409;-61
2022/02/20 15:20:51;;;;;;;5.28;3.13;;;24.10;46.70;;;;;;6095870;28;81196;-62
2022/02/20 15:23:52;;;;;;;5.45;2.92;;;24.00;46.70;;;;;;6103430;28;82598;-61
2022/02/20 15:26:53;;;;;;;4.10;2.80;;;24.00;46.70;;;;;;6108281;28;82524;-62
2022/02/20 15:29:53;;;;;;;5.35;3.13;;;24.10;46.80;;;;;;6114026;28;80536;-61
2022/02/20 15:32:54;;;;;;;5.88;2.95;;;24.10;46.80;;;;;;6109024;28;80450;-62
2022/02/20 15:35:55;;;;;;;4.88;2.88;;;24.00;46.70;;;;;;6090352;28;81601;-61
2022/02/20 15:38:57;;;;;;;8.50;3.75;;;24.00;46.70;;;;;;6113797;28;81570;-61
2022/02/20 15:41:58;;;;;;;5.40;3.10;;;24.00;46.90;;;;;;6113000;28;86413;-61
2022/02/20 15:44:58;;;;;;;5.20;2.67;;;23.90;47.20;;;;;;6127229;28;80748;-59
2022/02/20 15:48:00;;;;;;;8.05;2.70;;;23.90;47.70;;;;;;6107938;28;80411;-61